createdAt,value
2022-11-26T00:01:18.598Z,69.41
2022-11-26T00:03:47.442Z,69.57
2022-11-26T00:06:31.713Z,69.29
2022-11-26T00:09:00.897Z,69.29
2022-11-26T00:11:29.032Z,69.46
2022-11-26T00:13:57.201Z,69.20
2022-11-26T00:16:25.286Z,68.87
2022-11-26T00:18:53.344Z,69.04
2022-11-26T00:21:24.201Z,69.14
2022-11-26T00:23:53.819Z,69.05
2022-11-26T00:26:24.633Z,68.93
2022-11-26T00:28:56.134Z,68.90
2022-11-26T00:31:25.196Z,68.72
2022-11-26T00:33:53.233Z,68.95
2022-11-26T00:36:27.968Z,69.12
2022-11-26T00:39:15.075Z,69.23
2022-11-26T00:41:48.089Z,69.24
2022-11-26T00:44:19.632Z,69.41
2022-11-26T00:46:49.462Z,69.66
2022-11-26T00:49:18.323Z,69.71
2022-11-26T00:51:47.293Z,69.43
2022-11-26T00:54:18.755Z,69.26
2022-11-26T00:56:48.342Z,69.12
2022-11-26T00:59:22.399Z,69.22
2022-11-26T01:01:50.902Z,69.38
2022-11-26T01:04:19.026Z,69.35
2022-11-26T01:06:47.406Z,69.25
2022-11-26T01:09:21.151Z,68.94
2022-11-26T01:11:53.738Z,68.86
2022-11-26T01:14:23.327Z,68.86
2022-11-26T01:16:53.759Z,68.91
2022-11-26T01:19:22.158Z,69.12
2022-11-26T01:21:50.264Z,69.09
2022-11-26T01:24:18.232Z,69.12
2022-11-26T01:26:46.304Z,69.04
2022-11-26T01:29:18.435Z,69.24
2022-11-26T01:31:46.900Z,69.54
2022-11-26T01:34:15.634Z,69.65
2022-11-26T01:36:44.608Z,69.46
2022-11-26T01:39:19.358Z,69.91
2022-11-26T01:42:05.481Z,69.78
2022-11-26T01:44:37.269Z,69.95
2022-11-26T01:47:25.247Z,69.83
2022-11-26T01:50:30.998Z,69.98
2022-11-26T01:53:16.275Z,70.15
2022-11-26T01:55:53.943Z,70.36
2022-11-26T01:58:28.693Z,70.41
2022-11-26T02:00:57.124Z,70.49
2022-11-26T02:03:26.113Z,70.47
2022-11-26T02:06:08.886Z,70.51
2022-11-26T02:08:37.282Z,70.37
2022-11-26T02:11:23.449Z,70.36
2022-11-26T02:13:55.702Z,70.23
2022-11-26T02:16:42.713Z,70.14
2022-11-26T02:19:44.862Z,70.38
2022-11-26T02:22:25.056Z,70.68
2022-11-26T02:25:12.321Z,70.96
2022-11-26T02:27:55.591Z,71.22
2022-11-26T02:30:23.781Z,71.19
2022-11-26T02:33:02.948Z,71.20
2022-11-26T02:35:54.958Z,71.20
2022-11-26T02:38:25.472Z,71.26
2022-11-26T02:40:53.500Z,70.83
2022-11-26T02:43:22.454Z,70.47
2022-11-26T02:45:56.087Z,70.67
2022-11-26T02:48:29.085Z,70.54
2022-11-26T02:51:02.161Z,70.56
2022-11-26T02:53:32.730Z,70.48
2022-11-26T02:56:15.765Z,70.61
2022-11-26T02:58:44.559Z,70.52
2022-11-26T03:01:19.896Z,70.63
2022-11-26T03:03:51.134Z,70.60
2022-11-26T03:06:20.935Z,70.91
2022-11-26T03:08:49.329Z,70.70
2022-11-26T03:11:17.282Z,70.80
2022-11-26T03:13:45.222Z,70.81
2022-11-26T03:16:13.371Z,70.78
2022-11-26T03:18:41.594Z,71.15
2022-11-26T03:21:09.738Z,71.22
2022-11-26T03:23:37.735Z,71.48
2022-11-26T03:26:05.820Z,71.20
2022-11-26T03:28:33.881Z,71.11
2022-11-26T03:31:02.153Z,71.16
2022-11-26T03:33:30.237Z,71.14
2022-11-26T03:35:58.401Z,71.31
2022-11-26T03:38:26.670Z,71.11
2022-11-26T03:41:03.851Z,71.13
2022-11-26T03:43:31.874Z,70.99
2022-11-26T03:45:59.926Z,70.77
2022-11-26T03:48:27.979Z,70.71
2022-11-26T03:50:56.142Z,70.56
2022-11-26T03:53:24.210Z,70.63
2022-11-26T03:55:52.230Z,70.71
2022-11-26T03:58:20.269Z,70.82
2022-11-26T04:00:48.270Z,71.18
2022-11-26T04:03:16.315Z,71.30
2022-11-26T04:05:44.413Z,71.40
2022-11-26T04:08:12.537Z,71.33
2022-11-26T04:10:40.708Z,71.28
2022-11-26T04:13:08.978Z,71.18
2022-11-26T04:15:37.050Z,71.29
2022-11-26T04:18:05.123Z,71.33
2022-11-26T04:20:33.139Z,71.53
2022-11-26T04:23:01.296Z,71.39
2022-11-26T04:25:29.337Z,71.62
2022-11-26T04:27:58.523Z,71.76
2022-11-26T04:30:26.764Z,71.62
2022-11-26T04:32:55.284Z,71.41
2022-11-26T04:35:23.496Z,71.81
2022-11-26T04:37:51.834Z,71.86
2022-11-26T04:40:20.094Z,71.77
2022-11-26T04:42:48.062Z,71.67
2022-11-26T04:45:16.046Z,71.73
2022-11-26T04:47:44.215Z,71.64
2022-11-26T04:50:12.748Z,71.46
2022-11-26T04:52:40.769Z,71.53
2022-11-26T04:55:09.925Z,71.57
2022-11-26T04:57:37.936Z,71.54
2022-11-26T05:00:07.495Z,72.04
2022-11-26T05:02:35.658Z,71.99
2022-11-26T05:05:03.887Z,71.93
2022-11-26T05:07:32.149Z,72.08
2022-11-26T05:10:00.541Z,72.20
2022-11-26T05:12:28.571Z,72.45
2022-11-26T05:14:56.580Z,72.54
2022-11-26T05:17:24.646Z,72.39
2022-11-26T05:19:52.720Z,72.47
2022-11-26T05:22:20.785Z,72.32
2022-11-26T05:24:48.885Z,72.35
2022-11-26T05:27:17.140Z,72.34
2022-11-26T05:29:45.508Z,72.25
2022-11-26T05:32:13.582Z,72.43
2022-11-26T05:34:41.804Z,72.43
2022-11-26T05:37:10.152Z,72.22
2022-11-26T05:39:38.509Z,72.26
2022-11-26T05:42:09.446Z,72.11
2022-11-26T05:44:38.392Z,72.07
2022-11-26T05:47:06.632Z,72.25
2022-11-26T05:49:34.689Z,72.19
2022-11-26T05:52:02.862Z,72.16
2022-11-26T05:54:31.086Z,72.34
2022-11-26T05:57:00.465Z,72.35
2022-11-26T05:59:28.908Z,72.49
2022-11-26T06:01:57.261Z,72.45
2022-11-26T06:04:25.581Z,72.56
2022-11-26T06:06:53.633Z,72.59
2022-11-26T06:09:21.808Z,72.70
2022-11-26T06:11:50.898Z,72.78
2022-11-26T06:14:19.276Z,73.12
2022-11-26T06:16:47.477Z,73.47
2022-11-26T06:19:15.928Z,73.29
2022-11-26T06:21:43.897Z,72.96
2022-11-26T06:24:12.433Z,73.03
2022-11-26T06:26:40.785Z,73.13
2022-11-26T06:29:08.869Z,72.71
2022-11-26T06:31:36.994Z,72.43
2022-11-26T06:34:05.275Z,72.27
2022-11-26T06:36:33.367Z,72.18
2022-11-26T06:39:01.438Z,71.96
2022-11-26T06:41:29.510Z,71.39
2022-11-26T06:43:59.603Z,71.11
2022-11-26T06:46:28.062Z,71.35
2022-11-26T06:48:56.159Z,71.47
2022-11-26T06:51:27.967Z,71.56
2022-11-26T06:53:56.186Z,71.36
2022-11-26T06:56:24.682Z,71.32
2022-11-26T06:58:55.385Z,71.36
2022-11-26T07:01:26.264Z,71.44
2022-11-26T07:03:55.316Z,71.50
2022-11-26T07:06:28.882Z,71.32
2022-11-26T07:08:59.353Z,71.21
2022-11-26T07:11:27.528Z,71.27
2022-11-26T07:13:55.501Z,71.33
2022-11-26T07:16:23.800Z,71.18
2022-11-26T07:18:59.396Z,70.80
2022-11-26T07:21:29.948Z,70.64
2022-11-26T07:23:58.772Z,70.77
2022-11-26T07:26:26.845Z,70.61
2022-11-26T07:28:54.844Z,70.25
2022-11-26T07:31:23.958Z,70.32
2022-11-26T07:33:52.402Z,70.10
2022-11-26T07:36:24.257Z,69.76
2022-11-26T07:38:56.787Z,69.63
2022-11-26T07:41:25.920Z,69.55
2022-11-26T07:43:54.394Z,69.35
2022-11-26T07:46:24.856Z,69.50
2022-11-26T07:48:54.337Z,69.52
2022-11-26T07:51:26.351Z,69.32
2022-11-26T07:53:54.841Z,69.44
2022-11-26T07:56:22.973Z,69.53
2022-11-26T07:58:52.279Z,69.37
2022-11-26T08:01:23.716Z,69.30
2022-11-26T08:03:52.032Z,69.44
2022-11-26T08:06:23.521Z,69.40
2022-11-26T08:08:51.930Z,69.40
2022-11-26T08:11:31.397Z,69.54
2022-11-26T08:14:07.970Z,69.82
2022-11-26T08:16:36.180Z,70.05
2022-11-26T08:19:08.734Z,69.98
2022-11-26T08:21:37.093Z,70.11
2022-11-26T08:24:07.375Z,70.17
2022-11-26T08:26:39.844Z,70.00
2022-11-26T08:29:13.035Z,70.05
2022-11-26T08:31:45.754Z,70.09
2022-11-26T08:34:16.276Z,69.80
2022-11-26T08:36:45.708Z,69.95
2022-11-26T08:39:17.453Z,69.96
2022-11-26T08:41:51.715Z,70.04
2022-11-26T08:44:20.763Z,70.22
2022-11-26T08:46:49.068Z,70.22
2022-11-26T08:49:18.400Z,70.41
2022-11-26T08:51:46.827Z,70.06
2022-11-26T08:54:15.085Z,69.86
2022-11-26T08:56:43.311Z,69.82
2022-11-26T08:59:11.635Z,69.97
2022-11-26T09:01:40.583Z,70.02
2022-11-26T09:04:08.722Z,70.24
2022-11-26T09:06:37.292Z,70.35
2022-11-26T09:09:15.744Z,70.45
2022-11-26T09:11:50.634Z,70.61
2022-11-26T09:14:21.775Z,70.77
2022-11-26T09:16:50.027Z,70.68
2022-11-26T09:19:18.853Z,70.79
2022-11-26T09:21:47.617Z,70.82
2022-11-26T09:24:17.304Z,71.14
2022-11-26T09:26:46.258Z,70.99
2022-11-26T09:29:16.652Z,71.27
2022-11-26T09:32:15.469Z,71.26
2022-11-26T09:34:33.978Z,71.58
2022-11-26T09:37:02.468Z,71.81
2022-11-26T09:39:30.680Z,71.82
2022-11-26T09:42:24.585Z,71.60
2022-11-26T09:45:08.140Z,71.49
2022-11-26T09:47:46.299Z,71.72
2022-11-26T09:50:14.313Z,71.98
2022-11-26T09:52:55.820Z,72.43
2022-11-26T09:55:31.430Z,72.24
2022-11-26T09:58:26.745Z,72.45
2022-11-26T10:00:59.079Z,72.38
2022-11-26T10:03:30.383Z,72.21
2022-11-26T10:06:14.468Z,72.37
2022-11-26T10:09:10.543Z,72.41
2022-11-26T10:12:06.186Z,72.44
2022-11-26T10:14:58.396Z,72.60
2022-11-26T10:17:47.681Z,72.94
2022-11-26T10:20:43.537Z,72.86
2022-11-26T10:23:11.557Z,73.10
2022-11-26T10:25:49.979Z,73.13
2022-11-26T10:28:26.968Z,72.91
2022-11-26T10:31:00.930Z,72.79
2022-11-26T10:33:33.126Z,72.80
2022-11-26T10:36:01.928Z,72.46
2022-11-26T10:38:29.984Z,72.45
2022-11-26T10:40:58.478Z,72.20
2022-11-26T10:43:26.839Z,72.22
2022-11-26T10:45:56.193Z,72.36
2022-11-26T10:48:30.399Z,72.27
2022-11-26T10:51:02.490Z,72.64
2022-11-26T10:53:35.978Z,73.07
2022-11-26T10:56:07.724Z,73.32
2022-11-26T10:58:43.936Z,73.48
2022-11-26T11:01:15.551Z,73.53
2022-11-26T11:04:13.895Z,73.75
2022-11-26T11:06:44.193Z,74.26
2022-11-26T11:09:34.384Z,74.57
2022-11-26T11:12:11.651Z,74.93
2022-11-26T11:14:43.319Z,75.30
2022-11-26T11:17:25.432Z,75.54
2022-11-26T11:19:53.874Z,75.85
2022-11-26T11:22:22.749Z,75.93
2022-11-26T11:24:51.020Z,75.87
2022-11-26T11:27:47.264Z,76.01
2022-11-26T11:30:27.139Z,76.02
2022-11-26T11:32:57.351Z,76.16
2022-11-26T11:35:30.693Z,76.18
2022-11-26T11:37:59.686Z,76.17
2022-11-26T11:40:31.199Z,76.27
2022-11-26T11:43:02.725Z,76.60
2022-11-26T11:45:40.916Z,76.49
2022-11-26T11:48:27.411Z,76.70
2022-11-26T11:51:11.377Z,76.66
2022-11-26T11:53:44.824Z,76.93
2022-11-26T11:56:37.028Z,77.12
2022-11-26T12:00:09.648Z,77.24
2022-11-26T12:02:43.606Z,77.43
2022-11-26T12:05:32.396Z,77.66
2022-11-26T12:08:21.673Z,77.93
2022-11-26T12:11:17.903Z,77.86
2022-11-26T12:13:50.179Z,78.06
2022-11-26T12:16:22.364Z,78.03
2022-11-26T12:19:13.222Z,78.30
2022-11-26T12:21:46.008Z,78.21
2022-11-26T12:24:25.749Z,77.96
2022-11-26T12:27:02.908Z,77.83
2022-11-26T12:29:39.296Z,77.96
2022-11-26T12:32:20.275Z,78.10
2022-11-26T12:34:52.954Z,78.21
2022-11-26T12:37:27.472Z,77.95
2022-11-26T12:40:26.056Z,78.19
2022-11-26T12:42:57.304Z,78.25
2022-11-26T12:45:38.264Z,78.41
2022-11-26T12:48:24.593Z,78.43
2022-11-26T12:51:08.225Z,78.60
2022-11-26T12:53:47.290Z,78.77
2022-11-26T12:56:29.029Z,78.99
2022-11-26T12:59:08.333Z,79.12
2022-11-26T13:01:37.028Z,78.91
2022-11-26T13:04:36.204Z,78.97
2022-11-26T13:07:16.316Z,78.44
2022-11-26T13:10:13.245Z,78.61
2022-11-26T13:13:00.368Z,78.63
2022-11-26T13:15:39.535Z,78.32
2022-11-26T13:18:27.877Z,78.29
2022-11-26T13:21:19.973Z,78.42
2022-11-26T13:24:17.408Z,77.92
2022-11-26T13:27:08.416Z,77.69
2022-11-26T13:30:01.694Z,77.63
2022-11-26T13:33:14.908Z,77.65
2022-11-26T13:36:25.012Z,77.78
2022-11-26T13:39:17.337Z,77.78
2022-11-26T13:41:54.654Z,77.88
2022-11-26T13:44:43.632Z,77.53
2022-11-26T13:47:29.715Z,77.52
2022-11-26T13:50:14.834Z,77.32
2022-11-26T13:52:57.459Z,77.49
2022-11-26T13:55:46.207Z,77.62
2022-11-26T13:58:25.513Z,78.03
2022-11-26T14:00:54.216Z,77.97
2022-11-26T14:03:55.628Z,77.82
2022-11-26T14:06:24.441Z,78.27
2022-11-26T14:08:54.570Z,78.40
2022-11-26T14:11:41.492Z,78.34
2022-11-26T14:14:25.354Z,78.27
2022-11-26T14:17:03.080Z,78.27
2022-11-26T14:19:40.743Z,78.46
2022-11-26T14:22:12.080Z,78.80
2022-11-26T14:24:49.641Z,78.73
2022-11-26T14:27:24.453Z,78.90
2022-11-26T14:29:55.943Z,78.98
2022-11-26T14:32:27.089Z,79.00
2022-11-26T14:34:57.535Z,78.68
2022-11-26T14:37:29.124Z,78.58
2022-11-26T14:40:05.921Z,78.95
2022-11-26T14:42:34.336Z,78.83
2022-11-26T14:45:25.751Z,78.83
2022-11-26T14:47:54.538Z,78.90
2022-11-26T14:50:24.669Z,78.98
2022-11-26T14:53:00.639Z,78.89
2022-11-26T14:55:30.744Z,78.76
2022-11-26T14:58:17.999Z,78.52
2022-11-26T15:01:02.439Z,78.87
2022-11-26T15:03:30.778Z,78.92
2022-11-26T15:05:59.192Z,79.07
2022-11-26T15:08:28.340Z,78.95
2022-11-26T15:10:59.725Z,79.09
2022-11-26T15:13:46.249Z,79.07
2022-11-26T15:16:38.846Z,78.93
2022-11-26T15:19:19.073Z,79.29
2022-11-26T15:21:49.305Z,79.08
2022-11-26T15:24:18.799Z,79.34
2022-11-26T15:26:48.242Z,79.68
2022-11-26T15:29:28.288Z,79.80
2022-11-26T15:31:57.159Z,79.78
2022-11-26T15:34:26.977Z,79.69
2022-11-26T15:36:55.324Z,79.94
2022-11-26T15:39:29.701Z,79.71
2022-11-26T15:42:04.863Z,79.60
2022-11-26T15:44:42.090Z,79.73
2022-11-26T15:47:22.993Z,79.74
2022-11-26T15:49:55.666Z,79.90
2022-11-26T15:52:27.664Z,79.86
2022-11-26T15:55:12.936Z,79.71
2022-11-26T15:57:42.422Z,79.80
2022-11-26T16:00:32.416Z,79.73
2022-11-26T16:03:00.992Z,79.42
2022-11-26T16:05:35.943Z,79.52
2022-11-26T16:08:27.445Z,79.77
2022-11-26T16:10:57.973Z,79.88
2022-11-26T16:13:33.404Z,79.76
2022-11-26T16:16:04.212Z,79.56
2022-11-26T16:18:43.086Z,79.52
2022-11-26T16:21:14.192Z,79.58
2022-11-26T16:23:43.056Z,79.56
2022-11-26T16:26:20.477Z,79.60
2022-11-26T16:28:48.833Z,79.59
2022-11-26T16:31:18.162Z,79.41
2022-11-26T16:33:46.739Z,79.48
2022-11-26T16:36:27.164Z,79.41
2022-11-26T16:38:55.340Z,79.41
2022-11-26T16:41:23.742Z,79.68
2022-11-26T16:43:51.990Z,79.66
2022-11-26T16:46:24.201Z,79.74
2022-11-26T16:48:52.636Z,79.55
2022-11-26T16:51:22.161Z,79.68
2022-11-26T16:53:50.233Z,79.87
2022-11-26T16:56:25.645Z,80.14
2022-11-26T16:58:54.990Z,80.27
2022-11-26T17:01:25.363Z,80.12
2022-11-26T17:03:53.488Z,79.78
2022-11-26T17:06:31.638Z,79.57
2022-11-26T17:09:01.270Z,79.60
2022-11-26T17:11:29.464Z,80.01
2022-11-26T17:13:57.609Z,79.96
2022-11-26T17:16:26.435Z,79.80
2022-11-26T17:18:54.775Z,79.53
2022-11-26T17:21:22.954Z,79.02
2022-11-26T17:23:50.997Z,78.70
2022-11-26T17:26:24.276Z,78.31
2022-11-26T17:28:52.452Z,77.98
2022-11-26T17:31:20.717Z,77.85
2022-11-26T17:33:50.156Z,77.70
2022-11-26T17:36:21.097Z,77.72
2022-11-26T17:38:50.007Z,77.40
2022-11-26T17:41:18.916Z,77.29
2022-11-26T17:43:47.155Z,77.07
2022-11-26T17:46:19.582Z,76.94
2022-11-26T17:48:49.644Z,76.85
2022-11-26T17:51:18.275Z,77.08
2022-11-26T17:53:46.557Z,77.07
2022-11-26T17:56:21.794Z,77.29
2022-11-26T17:58:50.983Z,77.37
2022-11-26T18:01:20.524Z,77.36
2022-11-26T18:03:48.658Z,77.15
2022-11-26T18:06:21.013Z,77.11
2022-11-26T18:08:49.212Z,77.05
2022-11-26T18:11:19.291Z,76.72
2022-11-26T18:13:52.724Z,76.46
2022-11-26T18:16:21.785Z,76.59
2022-11-26T18:18:49.933Z,76.31
2022-11-26T18:21:18.007Z,76.12
2022-11-26T18:23:48.332Z,75.94
2022-11-26T18:26:19.573Z,75.99
2022-11-26T18:28:47.641Z,75.96
2022-11-26T18:31:28.214Z,75.84
2022-11-26T18:34:02.934Z,75.73
2022-11-26T18:36:31.212Z,76.04
2022-11-26T18:38:59.277Z,76.22
2022-11-26T18:41:27.475Z,76.27
2022-11-26T18:43:55.546Z,76.40
2022-11-26T18:46:23.751Z,76.55
2022-11-26T18:48:52.321Z,76.56
2022-11-26T18:51:20.353Z,76.44
2022-11-26T18:53:48.730Z,76.62
2022-11-26T18:56:19.323Z,76.41
2022-11-26T18:58:47.328Z,76.40
2022-11-26T19:01:20.875Z,76.29
2022-11-26T19:03:49.965Z,76.52
2022-11-26T19:06:21.474Z,76.23
2022-11-26T19:08:51.235Z,76.20
2022-11-26T19:11:24.014Z,76.06
2022-11-26T19:13:52.240Z,76.03
2022-11-26T19:16:21.477Z,76.13
2022-11-26T19:18:50.296Z,75.85
2022-11-26T19:21:29.688Z,75.91
2022-11-26T19:24:00.744Z,76.25
2022-11-26T19:26:29.331Z,76.06
2022-11-26T19:29:02.165Z,76.15
2022-11-26T19:31:34.953Z,76.04
2022-11-26T19:34:10.091Z,76.17
2022-11-26T19:36:38.360Z,76.05
2022-11-26T19:39:07.740Z,76.39
2022-11-26T19:41:35.837Z,76.46
2022-11-26T19:44:07.135Z,76.64
2022-11-26T19:46:38.418Z,76.97
2022-11-26T19:49:07.483Z,76.63
2022-11-26T19:51:35.688Z,76.89
2022-11-26T19:54:05.093Z,76.93
2022-11-26T19:56:34.361Z,76.84
2022-11-26T19:59:03.218Z,76.94
2022-11-26T20:01:34.379Z,77.25
2022-11-26T20:04:06.212Z,77.34
2022-11-26T20:06:35.475Z,77.51
2022-11-26T20:09:06.124Z,77.50
2022-11-26T20:11:40.364Z,77.56
2022-11-26T20:14:12.094Z,77.36
2022-11-26T20:16:44.039Z,77.50
2022-11-26T20:19:13.366Z,77.49
2022-11-26T20:21:41.513Z,77.48
2022-11-26T20:24:14.547Z,77.53
2022-11-26T20:26:45.638Z,77.65
2022-11-26T20:29:16.854Z,77.56
2022-11-26T20:31:47.679Z,77.74
2022-11-26T20:34:18.775Z,77.93
2022-11-26T20:36:47.649Z,77.92
2022-11-26T20:39:19.049Z,77.97
2022-11-26T20:41:47.889Z,77.76
2022-11-26T20:44:16.943Z,77.71
2022-11-26T20:46:45.055Z,77.69
2022-11-26T20:49:13.229Z,77.68
2022-11-26T20:51:41.413Z,77.69
2022-11-26T20:54:09.572Z,77.56
2022-11-26T20:56:38.248Z,77.48
2022-11-26T20:59:09.555Z,77.40
2022-11-26T21:01:39.089Z,77.34
2022-11-26T21:04:07.320Z,77.15
2022-11-26T21:06:35.971Z,76.94
2022-11-26T21:09:06.625Z,76.67
2022-11-26T21:11:34.850Z,76.68
2022-11-26T21:14:03.586Z,76.73
2022-11-26T21:16:33.049Z,76.66
2022-11-26T21:19:01.717Z,76.80
2022-11-26T21:21:30.642Z,76.61
2022-11-26T21:23:59.220Z,76.35
2022-11-26T21:26:27.650Z,76.23
2022-11-26T21:28:58.328Z,76.09
2022-11-26T21:31:29.164Z,75.89
2022-11-26T21:34:02.604Z,75.66
2022-11-26T21:36:33.197Z,75.65
2022-11-26T21:39:02.355Z,75.73
2022-11-26T21:41:33.771Z,75.92
2022-11-26T21:44:04.084Z,75.75
2022-11-26T21:46:38.313Z,75.60
2022-11-26T21:49:08.254Z,75.97
2022-11-26T21:51:36.564Z,76.03
2022-11-26T21:54:05.515Z,76.33
2022-11-26T21:56:33.850Z,76.04
2022-11-26T21:59:02.311Z,76.22
2022-11-26T22:01:36.070Z,76.25
2022-11-26T22:04:08.602Z,75.96
2022-11-26T22:06:36.991Z,76.18
2022-11-26T22:09:06.158Z,76.33
2022-11-26T22:11:38.301Z,76.10
2022-11-26T22:14:07.869Z,75.67
2022-11-26T22:16:36.289Z,75.79
2022-11-26T22:19:05.790Z,75.80
2022-11-26T22:21:36.955Z,75.87
2022-11-26T22:24:06.343Z,75.97
2022-11-26T22:26:34.738Z,75.96
2022-11-26T22:29:03.795Z,76.00
2022-11-26T22:31:34.624Z,75.94
2022-11-26T22:34:07.756Z,75.80
2022-11-26T22:36:36.913Z,76.15
2022-11-26T22:39:07.171Z,75.88
2022-11-26T22:41:35.242Z,76.02
2022-11-26T22:44:03.427Z,75.88
2022-11-26T22:46:34.393Z,76.05
2022-11-26T22:49:03.217Z,75.95
2022-11-26T22:51:32.849Z,75.81
2022-11-26T22:54:03.895Z,75.90
2022-11-26T22:56:32.372Z,75.75
2022-11-26T22:59:01.716Z,75.66
2022-11-26T23:01:32.331Z,75.54
2022-11-26T23:04:03.857Z,75.45
2022-11-26T23:06:34.385Z,75.36
2022-11-26T23:09:05.014Z,75.63
2022-11-26T23:11:36.470Z,75.43
2022-11-26T23:14:07.543Z,75.26
2022-11-26T23:16:37.265Z,75.21
2022-11-26T23:19:06.359Z,75.24
2022-11-26T23:21:40.036Z,75.11
2022-11-26T23:24:09.073Z,75.07
2022-11-26T23:26:39.322Z,75.04
2022-11-26T23:29:08.445Z,75.03
2022-11-26T23:31:39.378Z,75.14
2022-11-26T23:34:08.628Z,75.02
2022-11-26T23:36:37.816Z,75.07
2022-11-26T23:39:08.887Z,75.30
2022-11-26T23:41:37.283Z,75.06
2022-11-26T23:44:05.472Z,75.13
2022-11-26T23:46:37.804Z,75.21
2022-11-26T23:49:05.877Z,74.81
2022-11-26T23:51:34.974Z,75.07
2022-11-26T23:54:03.452Z,75.13
2022-11-26T23:56:33.421Z,75.47
2022-11-26T23:59:04.508Z,75.48
